createdAt,value
2019-03-12T00:00:39.265Z,31.3
2019-03-12T00:01:29.061Z,30.8
2019-03-12T00:02:18.788Z,30.3
2019-03-12T00:03:08.614Z,30.1
2019-03-12T00:03:58.432Z,29.8
2019-03-12T00:04:49.019Z,29.7
2019-03-12T00:05:38.547Z,29.5
2019-03-12T00:06:28.930Z,29.4
2019-03-12T00:07:19.485Z,28.9
2019-03-12T00:08:08.697Z,28.6
2019-03-12T00:08:59.138Z,28.3
2019-03-12T00:09:48.857Z,28.1
2019-03-12T00:10:39.159Z,28
2019-03-12T00:11:29.765Z,27.9
2019-03-12T00:13:09.332Z,27.8
2019-03-12T00:13:59.954Z,27.8
2019-03-12T00:14:49.984Z,27.7
2019-03-12T00:15:39.783Z,27.6
2019-03-12T00:16:29.684Z,27.6
2019-03-12T00:17:19.061Z,27.1
2019-03-12T00:18:09.793Z,26.8
2019-03-12T00:18:58.944Z,26.5
2019-03-12T00:19:49.256Z,26.3
2019-03-12T00:20:39.312Z,26.1
2019-03-12T00:21:30.772Z,26.1
2019-03-12T00:22:19.444Z,25.9
2019-03-12T00:23:10.125Z,25.9
2019-03-12T00:24:00.127Z,25.8
2019-03-12T00:24:50.175Z,25.8
2019-03-12T00:25:40.824Z,25.7
2019-03-12T00:26:30.588Z,25.5
2019-03-12T00:27:20.369Z,25.9
2019-03-12T00:28:10.426Z,27.1
2019-03-12T00:29:00.490Z,28
2019-03-12T00:29:51.183Z,28.6
2019-03-12T00:30:40.415Z,29.2
2019-03-12T00:31:30.758Z,29.6
2019-03-12T00:32:20.996Z,30
2019-03-12T00:33:11.705Z,30.4
2019-03-12T00:34:01.119Z,29.8
2019-03-12T00:34:51.175Z,28.9
2019-03-12T00:35:41.037Z,27.4
2019-03-12T00:36:31.283Z,26.4
2019-03-12T00:37:21.103Z,25.1
2019-03-12T00:38:10.855Z,24.1
2019-03-12T00:39:01.737Z,24.3
2019-03-12T00:39:51.826Z,24.5
2019-03-12T00:40:41.708Z,25.9
2019-03-12T00:41:32.270Z,27
2019-03-12T00:42:20.890Z,28
2019-03-12T00:43:11.493Z,28.8
2019-03-12T00:44:01.114Z,29.4
2019-03-12T00:44:51.732Z,29.9
2019-03-12T00:45:42.298Z,30.3
2019-03-12T00:46:35.047Z,30.8
2019-03-12T00:47:21.532Z,31.1
2019-03-12T00:48:11.857Z,31.4
2019-03-12T00:49:01.954Z,31.8
2019-03-12T00:49:52.260Z,32.1
2019-03-12T00:50:42.320Z,32.4
2019-03-12T00:51:32.140Z,32.6
2019-03-12T00:52:22.424Z,32.9
2019-03-12T00:53:12.527Z,33.2
2019-03-12T00:54:02.026Z,33.1
2019-03-12T00:54:52.060Z,32.2
2019-03-12T00:55:42.704Z,32.1
2019-03-12T00:56:32.212Z,32
2019-03-12T00:57:22.526Z,31.6
2019-03-12T00:58:12.904Z,31.1
2019-03-12T00:59:01.806Z,30.6
2019-03-12T00:59:52.829Z,30.3
2019-03-12T01:00:42.236Z,29.9
2019-03-12T01:01:32.848Z,29.8
2019-03-12T01:02:23.442Z,29.6
2019-03-12T01:03:13.041Z,29.5
2019-03-12T01:04:03.890Z,29.2
2019-03-12T01:04:53.106Z,28.8
2019-03-12T01:05:43.146Z,28.5
2019-03-12T01:06:33.767Z,28.3
2019-03-12T01:07:23.869Z,28.1
2019-03-12T01:08:13.320Z,28
2019-03-12T01:09:04.012Z,27.9
2019-03-12T01:10:44.400Z,27.8
2019-03-12T01:11:33.866Z,27.8
2019-03-12T01:12:23.696Z,27.7
2019-03-12T01:13:13.489Z,27.7
2019-03-12T01:14:04.326Z,27.5
2019-03-12T01:14:53.788Z,27
2019-03-12T01:15:44.474Z,26.7
2019-03-12T01:16:33.608Z,26.4
2019-03-12T01:17:24.523Z,26.3
2019-03-12T01:18:17.051Z,26.1
2019-03-12T01:19:04.766Z,26
2019-03-12T01:19:55.002Z,25.9
2019-03-12T01:20:44.078Z,25.9
2019-03-12T01:21:34.593Z,25.8
2019-03-12T01:22:24.710Z,25.8
2019-03-12T01:23:14.118Z,25.7
2019-03-12T01:24:04.911Z,25.7
2019-03-12T01:24:54.828Z,26.9
2019-03-12T01:25:44.236Z,27.9
2019-03-12T01:26:34.113Z,28.6
2019-03-12T01:27:25.290Z,29.1
2019-03-12T01:28:15.607Z,29.7
2019-03-12T01:29:05.093Z,30.1
2019-03-12T01:29:55.468Z,30.4
2019-03-12T01:30:45.267Z,30.8
2019-03-12T01:31:35.552Z,31.1
2019-03-12T01:32:25.672Z,31.3
2019-03-12T01:33:14.844Z,31.6
2019-03-12T01:34:05.253Z,31.8
2019-03-12T01:34:54.690Z,32.1
2019-03-12T01:35:45.623Z,32.3
2019-03-12T01:36:35.642Z,32.4
2019-03-12T01:37:25.827Z,32.6
2019-03-12T01:38:16.060Z,32.9
2019-03-12T01:39:04.725Z,33
2019-03-12T01:39:55.870Z,32.9
2019-03-12T01:40:45.927Z,32.1
2019-03-12T01:41:34.619Z,32
2019-03-12T01:42:26.224Z,31.9
2019-03-12T01:43:15.895Z,31.4
2019-03-12T01:44:06.200Z,30.9
2019-03-12T01:44:55.722Z,30.5
2019-03-12T01:45:46.597Z,30.2
2019-03-12T01:46:35.882Z,29.9
2019-03-12T01:47:26.826Z,29.8
2019-03-12T01:48:16.226Z,29.6
2019-03-12T01:49:05.196Z,29.5
2019-03-12T01:49:56.599Z,29.1
2019-03-12T01:50:47.252Z,28.6
2019-03-12T01:51:38.649Z,28.4
2019-03-12T01:52:26.829Z,28.2
2019-03-12T01:53:16.604Z,28.1
2019-03-12T01:54:06.966Z,27.9
2019-03-12T01:55:47.361Z,27.8
2019-03-12T01:56:36.867Z,27.8
2019-03-12T01:57:27.526Z,27.7
2019-03-12T01:58:20.984Z,27.6
2019-03-12T01:59:06.464Z,27.6
2019-03-12T01:59:57.398Z,27.4
2019-03-12T02:00:46.892Z,26.9
2019-03-12T02:01:37.210Z,26.6
2019-03-12T02:02:26.970Z,26.3
2019-03-12T02:03:18.007Z,26.2
2019-03-12T02:04:07.564Z,26.1
2019-03-12T02:04:56.884Z,26
2019-03-12T02:05:47.769Z,25.9
2019-03-12T02:06:37.855Z,25.8
2019-03-12T02:07:28.516Z,25.8
2019-03-12T02:08:17.688Z,25.8
2019-03-12T02:09:08.626Z,25.7
2019-03-12T02:09:58.363Z,25.6
2019-03-12T02:10:48.212Z,26.8
2019-03-12T02:12:27.700Z,28.5
2019-03-12T02:13:18.580Z,29
2019-03-12T02:14:08.373Z,29.6
2019-03-12T02:14:58.468Z,29.9
2019-03-12T02:15:48.523Z,30.3
2019-03-12T02:16:41.308Z,30.6
2019-03-12T02:17:28.110Z,30.9
2019-03-12T02:18:18.670Z,31.2
2019-03-12T02:19:09.067Z,31.5
2019-03-12T02:19:58.347Z,31.8
2019-03-12T02:20:49.122Z,31.9
2019-03-12T02:21:38.920Z,32.2
2019-03-12T02:22:28.717Z,32.4
2019-03-12T02:23:17.934Z,32.6
2019-03-12T02:24:08.866Z,32.8
2019-03-12T02:25:00.907Z,32.9
2019-03-12T02:25:49.217Z,32.9
2019-03-12T02:26:39.015Z,32.1
2019-03-12T02:27:29.339Z,31.9
2019-03-12T02:28:19.390Z,31.8
2019-03-12T02:29:10.040Z,31.4
2019-03-12T02:29:59.067Z,30.9
2019-03-12T02:30:49.806Z,30.5
2019-03-12T02:31:39.722Z,30.2
2019-03-12T02:32:29.219Z,29.9
2019-03-12T02:33:18.422Z,29.8
2019-03-12T02:34:10.502Z,29.6
2019-03-12T02:35:00.020Z,29.5
2019-03-12T02:35:50.011Z,29
2019-03-12T02:36:39.052Z,28.6
2019-03-12T02:37:30.291Z,28.4
2019-03-12T02:38:20.526Z,28.2
2019-03-12T02:39:09.969Z,28
2019-03-12T02:40:00.521Z,27.9
2019-03-12T02:41:40.544Z,27.8
2019-03-12T02:42:30.239Z,27.7
2019-03-12T02:43:21.026Z,27.6
2019-03-12T02:44:09.917Z,27.6
2019-03-12T02:45:01.535Z,27.6
2019-03-12T02:45:50.579Z,27.2
2019-03-12T02:46:41.359Z,26.8
2019-03-12T02:47:30.996Z,26.5
2019-03-12T02:48:20.966Z,26.3
2019-03-12T02:49:16.858Z,26.1
2019-03-12T02:50:00.744Z,26
2019-03-12T02:50:50.014Z,25.9
2019-03-12T02:51:40.913Z,25.9
2019-03-12T02:52:31.376Z,25.8
2019-03-12T02:53:21.085Z,25.8
2019-03-12T02:54:10.719Z,25.7
2019-03-12T02:55:01.292Z,25.6
2019-03-12T02:55:51.259Z,25.9
2019-03-12T02:56:40.441Z,27.1
2019-03-12T02:57:31.912Z,28
2019-03-12T02:58:21.670Z,28.6
2019-03-12T02:59:11.825Z,29.2
2019-03-12T03:00:01.585Z,29.6
2019-03-12T03:00:51.294Z,30
2019-03-12T03:01:41.790Z,30.4
2019-03-12T03:02:31.900Z,30.6
2019-03-12T03:03:22.043Z,30.9
2019-03-12T03:04:12.653Z,31.2
2019-03-12T03:07:41.681Z,32.1
2019-03-12T03:08:33.480Z,32.3
2019-03-12T03:09:22.973Z,32.5
2019-03-12T03:10:12.618Z,32.6
2019-03-12T03:11:02.796Z,32.8
2019-03-12T03:11:56.605Z,32.4
2019-03-12T03:12:43.166Z,31.2
2019-03-12T03:13:33.059Z,29.5
2019-03-12T03:14:23.174Z,28.4
2019-03-12T03:15:13.290Z,27.6
2019-03-12T03:16:04.062Z,26.6
2019-03-12T03:16:52.879Z,25.3
2019-03-12T03:17:43.789Z,24.3
2019-03-12T03:18:33.673Z,24.4
2019-03-12T03:19:23.297Z,24.7
2019-03-12T03:20:13.492Z,26.1
2019-03-12T03:21:03.610Z,27.4
2019-03-12T03:21:52.442Z,28.3
2019-03-12T03:22:44.017Z,29.1
2019-03-12T03:23:34.048Z,29.7
2019-03-12T03:24:24.126Z,30.2
2019-03-12T03:25:14.114Z,30.6
2019-03-12T03:26:03.437Z,31.1
2019-03-12T03:26:53.834Z,31.4
2019-03-12T03:27:43.938Z,31.8
2019-03-12T03:28:34.417Z,32.1
2019-03-12T03:29:24.081Z,32.4
2019-03-12T03:30:14.564Z,32.7
2019-03-12T03:31:05.387Z,32.9
2019-03-12T03:31:53.916Z,33.2
2019-03-12T03:32:44.657Z,32.3
2019-03-12T03:33:34.846Z,32.1
2019-03-12T03:34:34.643Z,32
2019-03-12T03:35:14.755Z,31.6
2019-03-12T03:36:05.028Z,31.1
2019-03-12T03:36:55.153Z,30.6
2019-03-12T03:37:44.959Z,30.3
2019-03-12T03:38:35.038Z,29.9
2019-03-12T03:39:25.045Z,29.8
2019-03-12T03:40:15.142Z,29.6
2019-03-12T03:41:05.083Z,29.4
2019-03-12T03:41:55.061Z,29.2
2019-03-12T03:42:45.177Z,28.8
2019-03-12T03:43:35.993Z,28.4
2019-03-12T03:44:25.562Z,28.3
2019-03-12T03:45:15.841Z,28.1
2019-03-12T03:46:05.911Z,27.9
2019-03-12T03:46:55.625Z,27.9
2019-03-12T03:47:45.747Z,27.8
2019-03-12T03:48:35.995Z,27.7
2019-03-12T03:49:26.223Z,27.6
2019-03-12T03:50:15.938Z,27.6
2019-03-12T03:51:06.045Z,27.6
2019-03-12T03:51:56.243Z,27.5
2019-03-12T03:52:46.329Z,27
2019-03-12T03:53:35.931Z,26.6
2019-03-12T03:54:26.067Z,26.4
2019-03-12T03:55:15.539Z,26.3
2019-03-12T03:56:06.991Z,26.1
2019-03-12T03:56:56.626Z,26
2019-03-12T03:57:46.525Z,25.9
2019-03-12T03:58:35.665Z,25.9
2019-03-12T03:59:26.647Z,25.8
2019-03-12T04:00:16.543Z,25.8
2019-03-12T04:01:06.365Z,25.8
2019-03-12T04:01:56.436Z,25.6
2019-03-12T04:02:47.396Z,25.9
2019-03-12T04:03:37.252Z,27.2
2019-03-12T04:04:27.610Z,28.1
2019-03-12T04:05:17.309Z,28.8
2019-03-12T04:06:06.966Z,29.3
2019-03-12T04:06:56.925Z,29.8
2019-03-12T04:07:46.438Z,30.1
2019-03-12T04:08:36.982Z,30.5
2019-03-12T04:09:27.001Z,30.9
2019-03-12T04:10:17.509Z,31.2
2019-03-12T04:11:07.413Z,31.4
2019-03-12T04:11:57.120Z,31.8
2019-03-12T04:12:47.124Z,32
2019-03-12T04:13:37.971Z,32.2
2019-03-12T04:14:27.039Z,32.4
2019-03-12T04:15:17.540Z,32.6
2019-03-12T04:16:08.597Z,32.8
2019-03-12T04:16:58.084Z,33.1
2019-03-12T04:17:47.875Z,32.8
2019-03-12T04:18:38.287Z,32.1
2019-03-12T04:19:28.134Z,32
2019-03-12T04:20:17.551Z,31.8
2019-03-12T04:21:07.928Z,31.4
2019-03-12T04:21:58.420Z,30.8
2019-03-12T04:22:48.357Z,30.4
2019-03-12T04:23:37.888Z,30.1
2019-03-12T04:24:28.322Z,29.9
2019-03-12T04:25:32.701Z,29.8
2019-03-12T04:26:08.809Z,29.6
2019-03-12T04:26:58.270Z,29.6
2019-03-12T04:27:48.778Z,29.2
2019-03-12T04:28:38.690Z,28.8
2019-03-12T04:29:29.243Z,28.4
2019-03-12T04:30:18.376Z,28.2
2019-03-12T04:31:09.447Z,28.1
2019-03-12T04:31:59.448Z,27.9
2019-03-12T04:33:39.033Z,27.8
2019-03-12T04:34:29.216Z,27.7
2019-03-12T04:35:19.290Z,27.6
2019-03-12T04:36:08.889Z,27.6
2019-03-12T04:36:59.642Z,27.6
2019-03-12T04:37:49.278Z,27.5
2019-03-12T04:38:39.352Z,26.9
2019-03-12T04:39:28.764Z,26.6
2019-03-12T04:40:19.257Z,26.4
2019-03-12T04:41:09.498Z,26.3
2019-03-12T04:41:58.664Z,26.1
2019-03-12T04:42:48.883Z,26
2019-03-12T04:43:39.684Z,25.9
2019-03-12T04:44:29.816Z,25.9
2019-03-12T04:45:19.592Z,25.8
2019-03-12T04:46:09.852Z,25.8
2019-03-12T04:46:59.740Z,25.7
2019-03-12T04:47:49.516Z,25.6
2019-03-12T04:48:40.237Z,26.8
2019-03-12T04:50:19.649Z,28.5
2019-03-12T04:51:09.866Z,29.1
2019-03-12T04:52:00.656Z,29.6
2019-03-12T04:52:50.061Z,30.1
2019-03-12T04:53:44.168Z,30.4
2019-03-12T04:54:30.229Z,30.8
2019-03-12T04:55:19.801Z,31.1
2019-03-12T04:56:10.808Z,31.4
2019-03-12T04:57:00.868Z,31.6
2019-03-12T04:57:50.496Z,31.9
2019-03-12T04:58:40.693Z,32.1
2019-03-12T04:59:30.545Z,32.4
2019-03-12T05:00:20.864Z,32.6
2019-03-12T05:01:10.538Z,32.8
2019-03-12T05:02:01.068Z,32.9
2019-03-12T05:02:50.821Z,33.1
2019-03-12T05:03:40.513Z,32.4
2019-03-12T05:04:31.165Z,32
2019-03-12T05:05:21.288Z,31.9
2019-03-12T05:06:11.250Z,31.6
2019-03-12T05:07:00.750Z,31.2
2019-03-12T05:07:51.370Z,30.7
2019-03-12T05:08:41.153Z,30.3
2019-03-12T05:09:31.064Z,30
2019-03-12T05:10:21.955Z,29.8
2019-03-12T05:11:11.715Z,29.6
2019-03-12T05:12:01.455Z,29.5
2019-03-12T05:12:51.485Z,29.4
2019-03-12T05:13:41.307Z,29
2019-03-12T05:14:31.602Z,28.6
2019-03-12T05:15:21.760Z,28.3
2019-03-12T05:16:11.423Z,28.1
2019-03-12T05:17:01.308Z,27.9
2019-03-12T05:17:51.684Z,27.8
2019-03-12T05:18:41.867Z,27.6
2019-03-12T05:19:31.990Z,27.6
2019-03-12T05:20:22.575Z,27.5
2019-03-12T05:21:11.532Z,27.4
2019-03-12T05:22:02.142Z,27.3
2019-03-12T05:22:52.637Z,27.3
2019-03-12T05:23:42.242Z,27.1
2019-03-12T05:24:32.579Z,26.6
2019-03-12T05:25:22.662Z,26.3
2019-03-12T05:26:12.192Z,26.1
2019-03-12T05:27:03.326Z,26
2019-03-12T05:27:51.836Z,25.9
2019-03-12T05:28:42.627Z,25.8
2019-03-12T05:29:32.384Z,25.7
2019-03-12T05:30:23.597Z,25.6
2019-03-12T05:31:13.361Z,25.6
2019-03-12T05:32:03.194Z,25.5
2019-03-12T05:32:53.384Z,25.3
2019-03-12T05:33:42.689Z,26.1
2019-03-12T05:34:33.079Z,27.3
2019-03-12T05:35:23.158Z,28.1
2019-03-12T05:36:13.729Z,28.7
2019-03-12T05:37:03.274Z,29.3
2019-03-12T05:37:53.604Z,29.8
2019-03-12T05:38:43.981Z,30.1
2019-03-12T05:39:33.995Z,30.5
2019-03-12T05:40:22.153Z,30.8
2019-03-12T05:41:16.819Z,31.1
2019-03-12T05:42:03.618Z,31.4
2019-03-12T05:42:53.347Z,31.7
2019-03-12T05:43:43.656Z,31.9
2019-03-12T05:44:34.038Z,32.1
2019-03-12T05:45:24.189Z,32.4
2019-03-12T05:46:14.776Z,32.6
2019-03-12T05:47:06.792Z,32.8
2019-03-12T05:47:54.243Z,32.9
2019-03-12T05:48:44.663Z,33.1
2019-03-12T05:49:34.113Z,32.8
2019-03-12T05:50:24.103Z,32.1
2019-03-12T05:51:14.494Z,32
2019-03-12T05:52:03.853Z,31.8
2019-03-12T05:52:56.393Z,31.4
2019-03-12T05:53:45.237Z,30.9
2019-03-12T05:54:34.511Z,30.5
2019-03-12T05:55:25.207Z,30.2
2019-03-12T05:56:14.835Z,30
2019-03-12T05:57:04.675Z,29.8
2019-03-12T05:57:55.499Z,29.7
2019-03-12T05:58:44.755Z,29.6
2019-03-12T05:59:34.975Z,29.1
2019-03-12T06:00:24.917Z,28.8
2019-03-12T06:01:14.940Z,28.4
2019-03-12T06:02:05.043Z,28.3
2019-03-12T06:02:55.095Z,28.1
2019-03-12T06:05:41.850Z,27.8
2019-03-12T06:06:32.412Z,27.7
2019-03-12T06:07:22.257Z,27.6
2019-03-12T06:08:13.100Z,27.6
2019-03-12T06:09:02.909Z,27.6
2019-03-12T06:09:52.853Z,27.1
2019-03-12T06:10:42.917Z,26.6
2019-03-12T06:11:32.480Z,26.4
2019-03-12T06:12:23.294Z,26.2
2019-03-12T06:13:13.169Z,26.1
2019-03-12T06:14:03.227Z,25.9
2019-03-12T06:14:53.209Z,25.8
2019-03-12T06:15:42.792Z,25.8
2019-03-12T06:16:32.777Z,25.8
2019-03-12T06:17:23.752Z,25.7
2019-03-12T06:18:13.526Z,25.6
2019-03-12T06:19:03.321Z,25.4
2019-03-12T06:19:52.726Z,26.4
2019-03-12T06:20:43.368Z,27.4
2019-03-12T06:21:33.411Z,28.2
2019-03-12T06:22:23.792Z,28.8
2019-03-12T06:23:16.148Z,29.3
2019-03-12T06:24:04.471Z,29.7
2019-03-12T06:24:54.209Z,30.1
2019-03-12T06:25:43.206Z,30.4
2019-03-12T06:26:33.469Z,29.8
2019-03-12T06:27:25.213Z,28.9
2019-03-12T06:28:14.141Z,27.4
2019-03-12T06:29:03.681Z,26.6
2019-03-12T06:29:54.110Z,25.9
2019-03-12T06:30:44.334Z,25
2019-03-12T06:31:34.378Z,23.8
2019-03-12T06:32:24.088Z,22.6
2019-03-12T06:33:14.050Z,22.8
2019-03-12T06:34:04.113Z,23
2019-03-12T06:34:54.748Z,24.5
2019-03-12T06:35:43.406Z,25.8
2019-03-12T06:36:34.558Z,26.9
2019-03-12T06:38:14.179Z,28.5
2019-03-12T06:39:04.183Z,29.2
2019-03-12T06:39:54.840Z,29.6
2019-03-12T06:40:44.684Z,30.1
2019-03-12T06:41:34.842Z,30.6
2019-03-12T06:42:25.567Z,31
2019-03-12T06:43:15.255Z,31.4
2019-03-12T06:44:05.694Z,31.7
2019-03-12T06:44:55.410Z,32
2019-03-12T06:45:45.988Z,32.3
2019-03-12T06:46:35.015Z,32.6
2019-03-12T06:47:24.507Z,32.8
2019-03-12T06:48:14.802Z,33
2019-03-12T06:49:05.465Z,33.3
2019-03-12T06:49:55.525Z,33.3
2019-03-12T06:50:45.317Z,32.4
2019-03-12T06:51:34.282Z,32.3
2019-03-12T06:52:25.439Z,32.1
2019-03-12T06:53:15.227Z,31.8
2019-03-12T06:54:06.304Z,31.3
2019-03-12T06:54:56.373Z,30.8
2019-03-12T06:55:48.127Z,30.4
2019-03-12T06:56:35.877Z,30.2
2019-03-12T06:57:25.241Z,30
2019-03-12T06:58:16.379Z,29.9
2019-03-12T06:59:05.738Z,29.8
2019-03-12T06:59:55.941Z,29.7
2019-03-12T07:00:45.755Z,29.3
2019-03-12T07:01:36.158Z,28.8
2019-03-12T07:02:27.261Z,28.5
2019-03-12T07:03:17.025Z,28.3
2019-03-12T07:05:41.714Z,27.9
2019-03-12T07:06:32.321Z,27.9
2019-03-12T07:08:13.915Z,27.7
2019-03-12T07:09:03.164Z,27.6
2019-03-12T07:09:53.269Z,27.6
2019-03-12T07:10:42.564Z,27.4
2019-03-12T07:11:32.647Z,26.9
2019-03-12T07:12:23.246Z,26.5
2019-03-12T07:13:13.104Z,26.3
2019-03-12T07:14:03.641Z,26.1
2019-03-12T07:14:52.891Z,26
2019-03-12T07:15:43.333Z,25.9
2019-03-12T07:16:33.261Z,25.8
2019-03-12T07:17:23.372Z,25.8
2019-03-12T07:18:13.128Z,25.7
2019-03-12T07:19:03.440Z,25.6
2019-03-12T07:19:54.050Z,25.6
2019-03-12T07:20:43.850Z,25.6
2019-03-12T07:21:33.918Z,25.3
2019-03-12T07:22:23.682Z,25.1
2019-03-12T07:23:14.070Z,24.9
2019-03-12T07:24:04.075Z,24.8
2019-03-12T07:25:08.051Z,24.7
2019-03-12T07:25:44.185Z,24.6
2019-03-12T07:26:33.515Z,24.6
2019-03-12T07:27:23.798Z,24.5
2019-03-12T07:28:13.083Z,24.5
2019-03-12T07:29:04.023Z,24.4
2019-03-12T07:29:54.191Z,24.4
2019-03-12T07:30:44.040Z,24.4
2019-03-12T07:31:35.549Z,24.3
2019-03-12T07:32:24.380Z,24.1
2019-03-12T07:33:14.312Z,24
2019-03-12T07:34:04.537Z,23.9
2019-03-12T07:34:54.835Z,23.9
2019-03-12T07:35:44.652Z,23.8
2019-03-12T07:36:34.695Z,23.8
2019-03-12T07:37:24.748Z,23.8
2019-03-12T07:38:15.097Z,23.8
2019-03-12T07:39:05.108Z,23.7
2019-03-12T07:39:53.632Z,23.7
2019-03-12T07:40:44.197Z,23.7
2019-03-12T07:41:40.804Z,23.6
2019-03-12T07:42:24.285Z,23.9
2019-03-12T07:43:14.702Z,25.2
2019-03-12T07:44:04.994Z,26.4
2019-03-12T07:44:55.579Z,27.4
2019-03-12T07:45:48.524Z,28.3
2019-03-12T07:46:35.847Z,28.9
2019-03-12T07:47:43.197Z,29.4
2019-03-12T07:48:30.269Z,30.1
2019-03-12T07:49:05.411Z,30.4
2019-03-12T07:49:55.230Z,30.6
2019-03-12T07:50:45.037Z,30.9
2019-03-12T07:51:34.536Z,31.3
2019-03-12T07:52:25.097Z,31.5
2019-03-12T07:53:14.885Z,31.8
2019-03-12T07:54:08.109Z,32.1
2019-03-12T07:54:55.541Z,31.5
2019-03-12T07:55:46.171Z,31.2
2019-03-12T07:56:36.443Z,31.1
2019-03-12T07:57:26.239Z,31
2019-03-12T07:58:16.634Z,30.9
2019-03-12T07:59:09.702Z,30.8
2019-03-12T07:59:56.183Z,30.6
2019-03-12T08:00:46.696Z,30.6
2019-03-12T08:01:37.074Z,30.5
2019-03-12T08:02:25.434Z,30.4
2019-03-12T08:03:17.148Z,30.4
2019-03-12T08:04:07.016Z,30.3
2019-03-12T08:04:56.191Z,29.9
2019-03-12T08:05:47.078Z,29.2
2019-03-12T08:06:36.556Z,28.6
2019-03-12T08:07:26.183Z,28.3
2019-03-12T08:08:15.936Z,28.1
2019-03-12T08:09:07.145Z,27.9
2019-03-12T08:09:56.533Z,27.8
2019-03-12T08:10:47.477Z,27.6
2019-03-12T08:11:37.152Z,27.5
2019-03-12T08:12:27.860Z,27.4
2019-03-12T08:13:17.653Z,27.4
2019-03-12T08:14:06.375Z,27.3
2019-03-12T08:14:57.483Z,27.2
2019-03-12T08:15:46.865Z,26.7
2019-03-12T08:16:36.815Z,26.3
2019-03-12T08:17:26.886Z,26
2019-03-12T08:18:16.142Z,25.9
2019-03-12T08:19:07.292Z,25.8
2019-03-12T08:19:57.375Z,25.6
2019-03-12T08:20:47.487Z,25.6
2019-03-12T08:21:37.484Z,25.4
2019-03-12T08:22:27.510Z,25.4
2019-03-12T08:23:17.611Z,25.3
2019-03-12T08:24:07.945Z,25.3
2019-03-12T08:24:58.269Z,25.3
2019-03-12T08:25:51.957Z,25.1
2019-03-12T08:26:38.502Z,24.8
2019-03-12T08:27:30.937Z,24.7
2019-03-12T08:28:18.409Z,24.6
2019-03-12T08:29:08.490Z,24.6
2019-03-12T08:29:58.592Z,24.4
2019-03-12T08:30:48.433Z,24.4
2019-03-12T08:31:38.391Z,24.4
2019-03-12T08:32:31.575Z,24.3
2019-03-12T08:33:17.566Z,24.3
2019-03-12T08:34:08.838Z,24.3
2019-03-12T08:34:59.285Z,24.2
2019-03-12T08:35:49.080Z,24.2
2019-03-12T08:36:39.312Z,24.1
2019-03-12T08:37:29.499Z,23.9
2019-03-12T08:38:18.974Z,23.9
2019-03-12T08:39:09.771Z,23.8
2019-03-12T08:39:59.591Z,23.8
2019-03-12T08:41:04.262Z,23.8
2019-03-12T08:41:39.094Z,23.7
2019-03-12T08:42:29.476Z,23.7
2019-03-12T08:43:19.668Z,23.6
2019-03-12T08:44:09.638Z,23.6
2019-03-12T08:45:03.224Z,23.6
2019-03-12T08:45:56.666Z,23.5
2019-03-12T08:46:40.457Z,24.1
2019-03-12T08:47:29.363Z,25.4
2019-03-12T08:48:21.157Z,26.7
2019-03-12T08:49:10.414Z,27.4
2019-03-12T08:49:59.756Z,28.3
2019-03-12T08:50:50.156Z,28.9
2019-03-12T08:51:40.854Z,29.4
2019-03-12T08:52:30.359Z,29.8
2019-03-12T08:53:20.356Z,30.1
2019-03-12T08:54:10.377Z,30.4
2019-03-12T08:55:07.012Z,30.8
2019-03-12T08:55:51.088Z,31.1
2019-03-12T08:56:40.790Z,31.4
2019-03-12T08:57:31.205Z,31.6
2019-03-12T08:58:20.974Z,31.9
2019-03-12T08:59:10.187Z,32.1
2019-03-12T09:00:01.037Z,32.1
2019-03-12T09:00:49.546Z,31.3
2019-03-12T09:01:46.592Z,31.2
2019-03-12T09:02:30.435Z,31.1
2019-03-12T09:03:19.932Z,31
2019-03-12T09:04:11.132Z,30.8
2019-03-12T09:05:00.873Z,30.8
2019-03-12T09:05:50.617Z,30.6
2019-03-12T09:06:40.695Z,30.6
2019-03-12T09:07:29.652Z,30.4
2019-03-12T09:08:20.275Z,30.4
2019-03-12T09:09:10.882Z,30.3
2019-03-12T09:10:00.922Z,29.4
2019-03-12T09:10:51.271Z,28.9
2019-03-12T09:11:40.594Z,28.4
2019-03-12T09:12:31.408Z,28.2
2019-03-12T09:13:21.247Z,28
2019-03-12T09:14:10.472Z,27.9
2019-03-12T09:15:01.516Z,27.7
2019-03-12T09:15:51.467Z,27.6
2019-03-12T09:16:41.037Z,27.5
2019-03-12T09:17:31.143Z,27.4
2019-03-12T09:18:20.992Z,27.4
2019-03-12T09:19:11.784Z,27.4
2019-03-12T09:20:02.320Z,26.9
2019-03-12T09:20:51.655Z,26.4
2019-03-12T09:21:42.321Z,26.1
2019-03-12T09:22:32.592Z,25.9
2019-03-12T09:23:23.204Z,25.8
2019-03-12T09:24:12.694Z,25.7
2019-03-12T09:25:02.524Z,25.6
2019-03-12T09:25:52.568Z,25.5
2019-03-12T09:26:41.503Z,25.4
2019-03-12T09:27:32.899Z,25.4
2019-03-12T09:28:22.828Z,25.3
2019-03-12T09:29:13.008Z,25.3
2019-03-12T09:30:03.014Z,25.2
2019-03-12T09:30:52.106Z,24.9
2019-03-12T09:31:43.048Z,24.8
2019-03-12T09:32:33.019Z,24.6
2019-03-12T09:33:23.391Z,24.6
2019-03-12T09:34:13.126Z,24.5
2019-03-12T09:35:03.619Z,24.4
2019-03-12T09:35:52.428Z,24.4
2019-03-12T09:36:42.447Z,24.3
2019-03-12T09:37:33.143Z,24.3
2019-03-12T09:38:23.803Z,24.3
2019-03-12T09:39:13.224Z,24.3
2019-03-12T09:40:03.935Z,24.2
2019-03-12T09:40:52.787Z,24.1
2019-03-12T09:41:42.992Z,23.9
2019-03-12T09:42:33.521Z,23.9
2019-03-12T09:43:23.561Z,23.8
2019-03-12T09:44:14.163Z,23.8
2019-03-12T09:45:03.663Z,23.7
2019-03-12T09:45:54.293Z,23.7
2019-03-12T09:46:44.377Z,23.6
2019-03-12T09:47:33.505Z,23.6
2019-03-12T09:48:23.835Z,23.6
2019-03-12T09:49:13.766Z,23.6
2019-03-12T09:50:03.950Z,23.5
2019-03-12T09:50:54.092Z,23.9
2019-03-12T09:51:44.475Z,25.3
2019-03-12T09:52:34.495Z,26.4
2019-03-12T09:53:24.558Z,27.3
2019-03-12T09:54:14.085Z,28.2
2019-03-12T09:55:07.994Z,28.8
2019-03-12T09:55:55.545Z,29.3
2019-03-12T09:56:44.474Z,29.7
2019-03-12T09:57:34.967Z,30
2019-03-12T09:58:24.865Z,30.3
2019-03-12T09:59:14.949Z,30.6
2019-03-12T10:00:20.498Z,30.9
2019-03-12T10:00:54.766Z,31.3
2019-03-12T10:01:45.730Z,31.5
2019-03-12T10:02:34.970Z,31.8
2019-03-12T10:03:24.839Z,32
2019-03-12T10:04:15.451Z,32.3
2019-03-12T10:06:42.747Z,31.3
2019-03-12T10:07:32.441Z,31.1
2019-03-12T10:08:22.071Z,31
2019-03-12T10:09:11.882Z,30.9
2019-03-12T10:10:02.738Z,30.8
2019-03-12T10:10:51.951Z,30.7
2019-03-12T10:11:42.749Z,30.6
2019-03-12T10:12:33.366Z,30.5
2019-03-12T10:13:22.854Z,30.4
2019-03-12T10:14:11.601Z,30.4
2019-03-12T10:15:03.043Z,29.9
2019-03-12T10:15:53.026Z,29.1
2019-03-12T10:16:43.034Z,28.6
2019-03-12T10:17:33.739Z,28.3
2019-03-12T10:18:22.360Z,28
2019-03-12T10:20:02.730Z,27.7
2019-03-12T10:20:53.774Z,27.6
2019-03-12T10:21:43.163Z,27.5
2019-03-12T10:22:32.928Z,27.4
2019-03-12T10:23:23.263Z,27.3
2019-03-12T10:24:13.603Z,27.3
2019-03-12T10:25:03.823Z,27.2
2019-03-12T10:25:53.176Z,26.6
2019-03-12T10:26:44.223Z,26.3
2019-03-12T10:27:33.438Z,25.9
2019-03-12T10:28:24.528Z,25.8
2019-03-12T10:29:14.238Z,25.7
2019-03-12T10:30:04.013Z,25.6
2019-03-12T10:30:53.890Z,25.5
2019-03-12T10:31:43.908Z,25.4
2019-03-12T10:32:34.782Z,25.3
2019-03-12T10:33:24.010Z,25.3
2019-03-12T10:34:14.619Z,25.2
2019-03-12T10:35:04.284Z,25.1
2019-03-12T10:35:55.892Z,25
2019-03-12T10:36:44.830Z,24.8
2019-03-12T10:37:34.325Z,24.6
2019-03-12T10:38:24.047Z,24.5
2019-03-12T10:39:14.687Z,24.4
2019-03-12T10:40:04.821Z,24.4
2019-03-12T10:40:55.177Z,24.4
2019-03-12T10:41:44.431Z,24.3
2019-03-12T10:42:34.188Z,24.3
2019-03-12T10:43:25.006Z,24.3
2019-03-12T10:44:14.565Z,24.2
2019-03-12T10:45:05.805Z,24.1
2019-03-12T10:45:55.165Z,24.1
2019-03-12T10:46:45.224Z,23.9
2019-03-12T10:47:35.287Z,23.9
2019-03-12T10:48:25.686Z,23.8
2019-03-12T10:49:14.949Z,23.8
2019-03-12T10:50:05.541Z,23.7
2019-03-12T10:50:55.816Z,23.6
2019-03-12T10:51:45.414Z,23.6
2019-03-12T10:52:34.818Z,23.6
2019-03-12T10:53:25.747Z,23.6
2019-03-12T10:54:15.043Z,23.5
2019-03-12T10:55:21.408Z,23.5
2019-03-12T10:55:55.599Z,24.5
2019-03-12T10:56:45.989Z,25.4
2019-03-12T10:57:35.479Z,26.6
2019-03-12T10:58:26.719Z,27.5
2019-03-12T10:59:15.621Z,28.3
2019-03-12T11:00:05.899Z,28.9
2019-03-12T11:00:55.849Z,29.3
2019-03-12T11:01:46.591Z,29.7
2019-03-12T11:02:35.779Z,30
2019-03-12T11:03:26.439Z,28.9
2019-03-12T11:04:17.145Z,28
2019-03-12T11:05:06.145Z,26.8
2019-03-12T11:05:55.773Z,25.9
2019-03-12T11:06:45.901Z,24.8
2019-03-12T11:07:36.504Z,23.4
2019-03-12T11:08:26.021Z,23.5
2019-03-12T11:09:17.141Z,23.6
2019-03-12T11:10:06.958Z,24.9
2019-03-12T11:10:55.452Z,26.1
2019-03-12T11:11:46.715Z,27.1
2019-03-12T11:12:37.206Z,28.1
2019-03-12T11:13:26.893Z,28.8
2019-03-12T11:14:16.438Z,29.3
2019-03-12T11:15:07.317Z,29.8
2019-03-12T11:15:57.650Z,30.1
2019-03-12T11:16:47.129Z,30.4
2019-03-12T11:17:51.890Z,30.8
2019-03-12T11:18:26.493Z,31.2
2019-03-12T11:19:17.930Z,31.4
2019-03-12T11:20:07.663Z,31.6
2019-03-12T11:21:00.316Z,31.9
2019-03-12T11:21:47.752Z,32.2
2019-03-12T11:22:36.794Z,32.3
2019-03-12T11:23:27.667Z,32.5
2019-03-12T11:24:17.435Z,31.6
2019-03-12T11:25:08.064Z,31.4